Time;durP1;ratioP1;P1;durP2;ratioP2;P2;SDS_P1;SDS_P2;PMS_P1;PMS_P2;Temp;Humidity;BMP_temperature;BMP_pressure;BME280_temperature;BME280_humidity;BME280_pressure;Samples;Min_cycle;Max_cycle;Signal;HPM_P1;HPM_P2
2023/08/12 00:04:58;;;;;;;6.60;2.00;;;15.60;99.90;;;;;;1943673;72;27046;-89
2023/08/12 00:07:46;;;;;;;11.00;2.20;;;15.60;99.90;;;;;;1934258;73;25834;-89
2023/08/12 00:24:02;;;;;;;9.30;2.00;;;15.60;99.90;;;;;;1893254;72;27086;-88
2023/08/12 00:29:40;;;;;;;14.47;2.33;;;15.60;99.90;;;;;;1934190;72;26791;-88
2023/08/12 00:32:28;;;;;;;7.60;2.10;;;15.70;99.90;;;;;;1894487;75;25241;-88
2023/08/12 00:35:16;;;;;;;6.20;2.10;;;15.80;99.90;;;;;;1877932;75;25203;-88
2023/08/12 00:38:07;;;;;;;9.13;2.13;;;15.80;99.90;;;;;;1883587;75;25203;-88
2023/08/12 00:40:55;;;;;;;12.87;2.40;;;15.80;99.90;;;;;;1900839;75;26046;-88
2023/08/12 00:43:44;;;;;;;10.37;2.50;;;15.80;99.90;;;;;;1883049;75;25207;-88
2023/08/12 00:49:14;;;;;;;12.47;2.77;;;15.80;99.90;;;;;;1950276;72;26987;-89
2023/08/12 00:54:56;;;;;;;8.60;2.30;;;15.70;99.90;;;;;;1947593;72;26921;-89
2023/08/12 00:57:44;;;;;;;9.37;2.67;;;15.60;99.90;;;;;;1911685;73;25330;-89
2023/08/12 01:00:34;;;;;;;6.33;2.17;;;15.60;99.90;;;;;;1914941;73;26604;-89
2023/08/12 01:03:22;;;;;;;5.60;2.33;;;15.60;99.90;;;;;;1938558;73;25289;-89
2023/08/12 01:06:11;;;;;;;8.27;2.50;;;15.60;99.90;;;;;;1923249;73;25309;-89
2023/08/12 01:09:00;;;;;;;7.40;2.07;;;15.60;99.90;;;;;;1934397;73;25328;-88
2023/08/12 01:14:35;;;;;;;4.67;2.50;;;15.60;99.90;;;;;;2010973;69;27287;-88
2023/08/12 01:17:24;;;;;;;9.07;2.60;;;15.60;99.90;;;;;;1966976;72;25392;-88
2023/08/12 01:20:15;;;;;;;6.90;2.60;;;15.60;99.90;;;;;;1948224;72;25276;-89
2023/08/12 01:23:13;;;;;;;8.73;2.90;;;15.60;99.90;;;;;;1968354;72;25632;-88
2023/08/12 01:26:03;;;;;;;9.90;3.20;;;15.60;99.90;;;;;;1949721;72;25276;-88
2023/08/12 01:28:51;;;;;;;13.43;3.20;;;15.70;99.90;;;;;;1954711;72;25213;-88
2023/08/12 01:37:26;;;;;;;8.73;3.60;;;15.60;99.90;;;;;;1951579;72;26912;-88
2023/08/12 01:40:18;;;;;;;7.93;3.20;;;15.60;99.90;;;;;;1938573;73;25303;-88
2023/08/12 01:46:58;;;;;;;17.17;4.40;;;15.60;99.90;;;;;;1954827;72;28172;-88
2023/08/12 01:49:51;;;;;;;12.07;4.87;;;15.60;99.90;;;;;;1926467;73;25587;-89
2023/08/12 03:51:40;;;;;;;18.77;7.57;;;15.70;99.90;;;;;;1951752;72;30577;-88
2023/08/12 03:58:11;;;;;;;13.57;7.17;;;15.80;99.90;;;;;;1915208;73;25195;-88
2023/08/12 04:44:39;;;;;;;11.53;6.10;;;16.00;99.90;;;;;;1947443;72;31140;-88
2023/08/12 05:41:06;;;;;;;13.43;8.30;;;16.00;99.90;;;;;;1924769;73;25363;-89
2023/08/12 06:03:53;;;;;;;16.23;10.30;;;16.00;99.90;;;;;;1980684;71;29991;-89
2023/08/12 06:14:28;;;;;;;12.93;8.50;;;16.20;99.90;;;;;;2030991;69;25300;-88
2023/08/12 06:21:55;;;;;;;15.90;8.33;;;16.20;99.90;;;;;;2045840;69;25789;-89
2023/08/12 06:25:16;;;;;;;16.40;8.60;;;16.20;99.90;;;;;;2042955;69;25230;-89
2023/08/12 06:28:31;;;;;;;15.53;8.23;;;16.10;99.90;;;;;;2031336;69;25339;-89
2023/08/12 06:32:08;;;;;;;15.83;8.97;;;16.20;99.90;;;;;;2028698;69;25681;-88
2023/08/12 06:43:15;;;;;;;14.93;8.60;;;16.40;99.90;;;;;;2019900;69;25271;-89
2023/08/12 06:53:25;;;;;;;14.00;7.73;;;16.50;99.90;;;;;;1957003;72;27970;-88
2023/08/12 07:09:27;;;;;;;21.53;10.93;;;16.60;99.90;;;;;;1868546;75;27521;-88
2023/08/12 07:16:04;;;;;;;22.03;11.00;;;16.50;99.90;;;;;;1819729;77;25789;-91
2023/08/12 07:19:20;;;;;;;23.83;11.93;;;16.60;99.90;;;;;;1826017;78;25674;-91
2023/08/12 07:29:42;;;;;;;19.43;12.03;;;16.60;99.90;;;;;;1950042;72;27032;-91
2023/08/12 07:35:42;;;;;;;22.37;11.00;;;16.80;99.90;;;;;;1949639;72;27478;-88
2023/08/12 07:39:06;;;;;;;24.17;10.53;;;17.00;99.90;;;;;;1918743;73;25314;-88
2023/08/12 07:45:22;;;;;;;15.57;10.63;;;17.00;99.90;;;;;;1947856;72;27090;-89
2023/08/12 07:48:17;;;;;;;17.40;10.03;;;16.90;99.90;;;;;;1920305;73;25237;-89
2023/08/12 07:51:24;;;;;;;21.03;10.67;;;17.00;99.90;;;;;;1923060;73;25229;-89
2023/08/12 07:54:35;;;;;;;16.77;10.20;;;17.10;99.90;;;;;;1927920;73;25231;-89
2023/08/12 07:57:26;;;;;;;18.60;10.60;;;16.90;99.90;;;;;;1915738;73;25167;-89
2023/08/12 08:00:18;;;;;;;23.13;10.63;;;16.90;99.90;;;;;;1922088;73;25185;-89
2023/08/12 08:03:08;;;;;;;16.20;10.57;;;16.90;99.90;;;;;;1917874;73;25268;-89
2023/08/12 08:06:00;;;;;;;22.30;10.13;;;17.00;99.90;;;;;;1921379;73;25150;-89
2023/08/12 08:22:55;;;;;;;25.23;12.80;;;17.20;99.90;;;;;;1895813;73;26366;-89
2023/08/12 08:28:32;;;;;;;20.27;11.83;;;17.00;99.90;;;;;;1952073;72;27169;-89
2023/08/12 08:31:21;;;;;;;28.27;12.67;;;17.00;99.90;;;;;;1917871;73;25229;-89
2023/08/12 08:34:11;;;;;;;21.33;12.20;;;17.10;99.90;;;;;;1937794;73;25298;-89
2023/08/12 08:37:12;;;;;;;28.73;13.90;;;17.10;99.90;;;;;;1924668;73;25238;-90
2023/08/12 08:40:02;;;;;;;30.87;13.33;;;17.10;99.90;;;;;;1914906;73;25299;-89
2023/08/12 08:42:53;;;;;;;22.87;13.73;;;17.00;99.90;;;;;;1890213;74;25272;-89
2023/08/12 08:45:45;;;;;;;28.17;14.40;;;17.00;99.90;;;;;;1908984;74;25309;-89
2023/08/12 08:48:36;;;;;;;28.50;13.63;;;17.00;99.90;;;;;;1906134;74;25390;-89
2023/08/12 09:04:34;;;;;;;31.10;13.23;;;17.10;99.90;;;;;;1871702;75;28232;-89
2023/08/12 09:07:24;;;;;;;25.33;14.00;;;17.10;99.90;;;;;;1908178;74;25266;-89
2023/08/12 09:10:13;;;;;;;27.77;12.90;;;17.20;99.90;;;;;;1887175;73;25211;-89
2023/08/12 09:15:55;;;;;;;22.47;11.97;;;17.60;99.90;;;;;;1907200;74;27132;-90
2023/08/12 09:18:45;;;;;;;26.03;12.67;;;17.70;99.90;;;;;;1831379;76;25259;-90
2023/08/12 09:21:34;;;;;;;26.33;12.03;;;17.60;99.90;;;;;;1851493;76;25840;-90
2023/08/12 09:24:27;;;;;;;21.93;11.80;;;17.70;99.90;;;;;;1851533;76;26573;-90
2023/08/12 09:41:12;;;;;;;18.80;10.27;;;17.70;99.90;;;;;;1911856;73;27023;-89
2023/08/12 09:57:47;;;;;;;13.90;7.63;;;17.70;99.90;;;;;;1928405;74;26356;-89
2023/08/12 10:03:31;;;;;;;16.50;7.10;;;19.10;99.90;;;;;;1938909;72;26928;-89
2023/08/12 10:06:21;;;;;;;17.30;7.57;;;19.20;99.90;;;;;;1936825;72;25225;-89
2023/08/12 10:09:11;;;;;;;15.90;8.23;;;19.10;99.90;;;;;;1934691;73;25300;-89
2023/08/12 10:25:16;;;;;;;13.87;7.17;;;19.10;99.90;;;;;;1913197;74;27994;-88
2023/08/12 10:41:20;;;;;;;20.23;6.13;;;18.90;99.90;;;;;;1888600;75;27126;-88
2023/08/12 10:46:53;;;;;;;13.77;6.60;;;19.00;99.90;;;;;;1949164;72;26885;-88
2023/08/12 10:52:59;;;;;;;8.83;5.80;;;19.20;99.90;;;;;;1978825;71;26365;-89
2023/08/12 10:55:50;;;;;;;14.10;6.10;;;19.50;99.90;;;;;;2044160;70;25326;-89
2023/08/12 10:58:44;;;;;;;10.33;6.33;;;19.60;99.90;;;;;;2039403;70;25219;-89
2023/08/12 11:01:33;;;;;;;8.30;5.53;;;19.60;99.90;;;;;;2031335;69;25241;-89
2023/08/12 11:04:22;;;;;;;9.50;6.20;;;19.70;99.90;;;;;;2035642;70;25250;-89
2023/08/12 11:07:19;;;;;;;10.80;5.63;;;20.00;99.90;;;;;;2025991;70;25294;-89
2023/08/12 11:10:14;;;;;;;9.87;5.80;;;20.30;99.90;;;;;;2027870;69;25308;-89
2023/08/12 11:13:04;;;;;;;11.10;5.07;;;20.30;99.90;;;;;;2028646;69;25551;-89
2023/08/12 11:15:53;;;;;;;10.47;5.80;;;20.20;99.90;;;;;;2043041;70;25179;-89
2023/08/12 11:32:09;;;;;;;9.97;5.47;;;20.20;99.90;;;;;;1930316;71;27419;-89
2023/08/12 11:34:58;;;;;;;12.37;6.03;;;20.40;99.90;;;;;;1984241;70;25227;-89
2023/08/12 11:37:47;;;;;;;15.43;6.47;;;20.30;99.90;;;;;;1990203;70;25229;-89
2023/08/12 11:53:46;;;;;;;12.67;6.43;;;20.30;99.90;;;;;;1896251;74;27092;-89
2023/08/12 11:59:15;;;;;;;9.13;5.70;;;19.90;99.90;;;;;;1922865;72;27142;-89
2023/08/12 12:04:44;;;;;;;9.97;5.67;;;19.90;99.90;;;;;;1917706;74;27060;-89
2023/08/12 12:07:34;;;;;;;11.67;5.43;;;20.00;99.90;;;;;;1876009;75;26629;-89
2023/08/12 12:10:27;;;;;;;7.13;5.37;;;20.00;99.90;;;;;;1867439;75;26049;-89
2023/08/12 12:13:17;;;;;;;7.93;5.10;;;20.00;99.90;;;;;;1876035;75;25194;-90
2023/08/12 12:16:07;;;;;;;11.03;4.97;;;20.00;99.90;;;;;;1871265;75;25268;-89
2023/08/12 12:19:00;;;;;;;13.00;4.40;;;20.00;99.90;;;;;;1865994;75;25923;-90
2023/08/12 12:21:50;;;;;;;8.83;4.70;;;20.10;99.90;;;;;;1869601;75;25671;-90
2023/08/12 12:24:48;;;;;;;11.57;4.80;;;20.20;99.90;;;;;;1866252;75;25230;-90
2023/08/12 12:27:37;;;;;;;7.23;5.00;;;20.30;99.90;;;;;;1881505;75;25527;-90
2023/08/12 12:33:11;;;;;;;10.97;5.47;;;20.10;99.90;;;;;;1944447;72;27563;-89
2023/08/12 12:49:28;;;;;;;11.27;6.13;;;19.70;99.90;;;;;;1922230;73;27079;-91
2023/08/12 12:55:10;;;;;;;12.63;5.90;;;19.10;99.90;;;;;;1942161;72;27018;-90
2023/08/12 12:57:59;;;;;;;12.00;5.50;;;19.00;99.90;;;;;;1923631;73;25233;-89
2023/08/12 13:00:48;;;;;;;7.70;4.90;;;19.10;99.90;;;;;;1924370;73;25895;-90
2023/08/12 13:06:28;;;;;;;9.03;4.53;;;19.20;99.90;;;;;;1947624;72;26924;-90
2023/08/12 13:12:03;;;;;;;6.47;4.27;;;19.20;99.90;;;;;;1957206;72;27613;-90
2023/08/12 13:14:52;;;;;;;12.13;5.03;;;19.20;99.90;;;;;;1913980;73;25294;-90
2023/08/12 13:17:41;;;;;;;12.57;3.93;;;19.40;99.90;;;;;;1936898;73;25299;-90
2023/08/12 13:24:15;;;;;;;11.73;4.10;;;19.80;99.90;;;;;;2055915;68;27331;-89
2023/08/12 13:27:04;;;;;;;7.47;4.13;;;19.70;99.90;;;;;;2023590;71;25210;-89
2023/08/12 13:29:52;;;;;;;9.73;4.20;;;19.50;99.90;;;;;;1983368;71;25290;-89
2023/08/12 13:32:41;;;;;;;9.07;4.10;;;19.30;99.90;;;;;;1998540;71;25777;-89
2023/08/12 13:35:29;;;;;;;7.90;3.77;;;19.40;99.90;;;;;;2008026;71;25210;-89
2023/08/12 13:38:18;;;;;;;6.60;3.70;;;19.30;99.90;;;;;;2019780;71;25198;-90
2023/08/12 13:41:06;;;;;;;9.23;3.50;;;19.30;99.90;;;;;;1994787;71;25269;-90
2023/08/12 13:43:55;;;;;;;6.83;3.10;;;19.60;99.90;;;;;;1958069;71;25277;-89
2023/08/12 13:46:44;;;;;;;6.90;3.20;;;20.00;99.90;;;;;;2032570;70;25624;-89
2023/08/12 13:49:34;;;;;;;12.13;3.23;;;20.20;99.90;;;;;;1972375;71;25779;-89
2023/08/12 13:52:22;;;;;;;6.87;3.20;;;20.10;99.90;;;;;;1964982;71;25778;-88
2023/08/12 13:55:11;;;;;;;7.57;2.70;;;20.20;99.90;;;;;;1992869;70;25219;-89
2023/08/12 14:14:21;;;;;;;8.77;3.03;;;20.40;99.90;;;;;;1926742;72;27540;-89
2023/08/12 14:17:13;;;;;;;8.27;2.87;;;20.30;99.90;;;;;;1899732;74;25233;-89
2023/08/12 14:20:00;;;;;;;9.80;2.90;;;20.30;99.90;;;;;;1893053;74;25401;-89
2023/08/12 14:22:49;;;;;;;8.27;3.20;;;20.20;99.90;;;;;;1892945;74;25258;-89
2023/08/12 14:25:38;;;;;;;7.80;3.07;;;20.20;99.90;;;;;;1905642;74;25304;-90
2023/08/12 14:28:26;;;;;;;9.17;2.93;;;20.10;99.90;;;;;;1868112;76;25273;-89
2023/08/12 14:31:15;;;;;;;10.07;2.93;;;19.90;99.90;;;;;;1840778;76;25329;-90
2023/08/12 14:34:05;;;;;;;9.77;3.03;;;19.80;99.90;;;;;;1888222;73;25729;-89
2023/08/12 14:36:54;;;;;;;9.53;3.23;;;19.80;99.90;;;;;;1875278;76;25262;-89
2023/08/12 14:42:24;;;;;;;8.20;3.10;;;19.90;99.90;;;;;;1921367;72;27047;-89
2023/08/12 14:48:14;;;;;;;7.30;3.10;;;20.10;99.90;;;;;;1943721;72;27064;-89
2023/08/12 14:51:04;;;;;;;10.73;2.90;;;20.00;99.90;;;;;;1936531;73;25189;-89
2023/08/12 14:53:52;;;;;;;7.90;3.03;;;19.90;99.90;;;;;;1925103;73;25162;-89
2023/08/12 14:56:40;;;;;;;11.60;3.00;;;20.00;99.90;;;;;;1924393;73;25244;-89
2023/08/12 14:59:29;;;;;;;7.50;2.83;;;20.00;99.90;;;;;;1925441;73;25775;-89
2023/08/12 15:02:17;;;;;;;8.87;3.03;;;19.90;99.90;;;;;;1939487;73;25280;-89
2023/08/12 15:05:06;;;;;;;8.13;2.73;;;19.70;99.90;;;;;;1919281;73;25261;-89
2023/08/12 15:07:55;;;;;;;9.37;2.87;;;19.70;99.90;;;;;;1929572;73;25777;-89
2023/08/12 15:14:02;;;;;;;7.07;2.40;;;19.70;99.90;;;;;;1982165;71;27532;-89
2023/08/12 15:16:51;;;;;;;6.97;2.87;;;19.80;99.90;;;;;;2014015;70;25180;-89
2023/08/12 15:19:40;;;;;;;8.63;2.90;;;19.90;99.90;;;;;;2000183;70;25266;-89
2023/08/12 15:22:28;;;;;;;8.83;2.63;;;20.00;99.90;;;;;;2030069;70;25832;-89
2023/08/12 15:28:08;;;;;;;5.83;2.63;;;20.10;99.90;;;;;;2043000;69;27513;-89
2023/08/12 15:30:57;;;;;;;8.47;2.80;;;20.10;99.90;;;;;;1988453;71;25230;-89
2023/08/12 15:33:47;;;;;;;6.57;2.50;;;20.10;99.90;;;;;;1990035;70;25300;-89
2023/08/12 15:39:29;;;;;;;9.30;2.70;;;20.10;99.90;;;;;;1958978;72;26929;-89
2023/08/12 15:42:18;;;;;;;10.03;2.77;;;20.10;99.90;;;;;;1938361;73;26627;-90
2023/08/12 15:45:11;;;;;;;7.53;2.60;;;20.20;99.90;;;;;;1910686;73;25718;-90
2023/08/12 15:47:59;;;;;;;8.70;2.93;;;20.10;99.90;;;;;;1936606;73;25262;-89
2023/08/12 15:50:48;;;;;;;7.43;2.50;;;20.00;99.90;;;;;;1911265;73;25223;-89
2023/08/12 15:53:37;;;;;;;7.83;2.70;;;20.00;99.90;;;;;;1928293;73;25205;-89
2023/08/12 15:56:26;;;;;;;6.73;2.63;;;20.00;99.90;;;;;;1917330;73;25708;-90
2023/08/12 16:02:09;;;;;;;6.80;2.50;;;20.10;99.90;;;;;;1947107;72;27043;-89
2023/08/12 16:04:58;;;;;;;8.30;2.53;;;20.10;99.90;;;;;;1919010;73;25292;-90
2023/08/12 16:07:47;;;;;;;9.67;2.60;;;20.20;99.90;;;;;;1920634;73;25631;-89
2023/08/12 16:10:35;;;;;;;8.57;2.87;;;20.30;99.90;;;;;;1933520;73;25286;-89
2023/08/12 16:13:24;;;;;;;15.97;3.00;;;20.40;99.90;;;;;;1924493;73;25211;-89
2023/08/12 16:16:13;;;;;;;7.10;2.30;;;20.40;99.90;;;;;;1922204;73;25283;-89
2023/08/12 16:21:41;;;;;;;9.07;2.53;;;20.30;99.90;;;;;;1928233;72;27705;-89
2023/08/12 16:24:29;;;;;;;8.63;2.60;;;20.20;99.90;;;;;;1889886;75;25326;-89
2023/08/12 16:27:18;;;;;;;9.57;2.57;;;20.10;99.90;;;;;;1852686;76;25561;-89
2023/08/12 16:30:09;;;;;;;12.63;2.97;;;20.10;99.90;;;;;;1838579;77;25280;-89
2023/08/12 16:33:00;;;;;;;8.50;2.40;;;20.20;99.90;;;;;;1841701;76;25267;-90
2023/08/12 16:35:49;;;;;;;9.53;2.27;;;20.20;99.90;;;;;;1832216;76;25354;-89
2023/08/12 16:38:38;;;;;;;7.20;2.60;;;20.20;99.90;;;;;;1871112;76;25225;-89
2023/08/12 16:41:27;;;;;;;6.00;2.50;;;20.10;99.90;;;;;;1826489;77;25846;-89
2023/08/12 16:44:16;;;;;;;6.77;2.43;;;20.00;99.90;;;;;;1877262;75;25335;-89
2023/08/12 16:47:05;;;;;;;7.93;2.43;;;19.90;99.90;;;;;;1879257;75;25231;-89
2023/08/12 16:49:54;;;;;;;8.33;2.50;;;20.00;99.90;;;;;;1885989;75;25966;-90
2023/08/12 17:06:09;;;;;;;5.53;2.20;;;20.10;99.90;;;;;;1910152;73;27164;-90
2023/08/12 17:22:37;;;;;;;9.13;2.43;;;20.00;99.90;;;;;;1960046;72;26751;-89
2023/08/12 17:28:12;;;;;;;4.60;2.60;;;19.90;99.90;;;;;;1966587;72;27084;-90
2023/08/12 17:44:27;;;;;;;9.10;2.30;;;19.70;99.90;;;;;;1918822;72;27054;-89
2023/08/12 18:00:56;;;;;;;6.33;2.50;;;19.50;99.90;;;;;;1878205;76;27168;-89
2023/08/12 18:06:26;;;;;;;6.40;2.60;;;19.20;99.90;;;;;;1939458;71;27765;-90
2023/08/12 18:09:15;;;;;;;6.70;2.90;;;19.10;99.90;;;;;;1902509;73;25261;-89
2023/08/12 18:12:04;;;;;;;10.17;3.13;;;19.10;99.90;;;;;;1889291;73;25225;-90
2023/08/12 18:14:53;;;;;;;5.67;3.30;;;19.10;99.90;;;;;;1906363;73;25844;-90
2023/08/12 18:17:41;;;;;;;11.73;3.33;;;19.10;99.90;;;;;;1901718;73;25316;-89
2023/08/12 18:33:58;;;;;;;3.33;3.00;;;18.90;99.90;;;;;;1932418;72;27427;-89
2023/08/12 18:39:34;;;;;;;7.40;3.60;;;18.50;99.90;;;;;;1951136;72;27435;-90
2023/08/12 18:42:23;;;;;;;7.03;3.30;;;18.50;99.90;;;;;;1914717;73;25344;-90
2023/08/12 18:45:11;;;;;;;4.50;2.93;;;18.50;99.90;;;;;;1911146;73;25262;-90
2023/08/12 18:48:00;;;;;;;6.60;3.13;;;18.40;99.90;;;;;;1912378;73;25247;-89
2023/08/12 18:50:48;;;;;;;9.97;3.77;;;18.40;99.90;;;;;;1912804;73;25297;-90
2023/08/12 18:53:37;;;;;;;3.97;3.40;;;18.40;99.90;;;;;;1923852;73;25740;-90
2023/08/12 18:56:26;;;;;;;7.07;3.43;;;18.40;99.90;;;;;;1924440;73;25328;-90
2023/08/12 19:01:53;;;;;;;8.40;3.50;;;18.30;99.90;;;;;;1927358;72;26943;-89
2023/08/12 19:04:42;;;;;;;3.83;2.80;;;18.30;99.90;;;;;;1898188;75;25244;-89
2023/08/12 19:10:17;;;;;;;3.60;2.83;;;18.30;99.90;;;;;;1959696;72;26903;-89
2023/08/12 19:26:35;;;;;;;3.50;2.60;;;18.30;99.90;;;;;;1911170;71;27073;-91
2023/08/12 19:29:23;;;;;;;3.37;2.40;;;18.20;99.90;;;;;;1904712;73;25560;-91
2023/08/12 19:35:04;;;;;;;2.80;2.50;;;18.20;99.90;;;;;;2029727;69;26980;-89
2023/08/12 19:37:54;;;;;;;4.63;2.80;;;18.20;99.90;;;;;;2019738;70;25702;-89
2023/08/12 19:54:40;;;;;;;7.03;2.63;;;18.30;99.90;;;;;;1969817;71;26381;-90
2023/08/12 20:01:44;;;;;;;2.27;2.17;;;18.30;99.90;;;;;;1978845;71;28033;-90
2023/08/12 20:04:33;;;;;;;5.43;2.70;;;18.20;99.90;;;;;;1963915;72;25258;-89
2023/08/12 20:07:22;;;;;;;2.80;2.60;;;18.20;99.90;;;;;;1999330;71;25322;-90
2023/08/12 20:10:11;;;;;;;4.17;2.70;;;18.10;99.90;;;;;;1990921;71;25249;-90
2023/08/12 20:13:01;;;;;;;3.83;3.13;;;18.10;99.90;;;;;;2025656;69;25201;-90
2023/08/12 20:15:53;;;;;;;3.17;2.73;;;18.00;99.90;;;;;;2044508;69;25521;-90
2023/08/12 20:18:40;;;;;;;4.37;3.10;;;18.10;99.90;;;;;;2035388;69;25273;-90
2023/08/12 20:21:28;;;;;;;8.73;3.40;;;18.00;99.90;;;;;;2041512;69;25239;-90
2023/08/12 20:24:17;;;;;;;4.30;3.17;;;17.90;99.90;;;;;;2029486;69;25254;-89
2023/08/12 20:27:06;;;;;;;5.00;3.20;;;17.90;99.90;;;;;;2034592;69;25320;-90
2023/08/12 20:29:54;;;;;;;3.30;3.00;;;17.90;99.90;;;;;;2037190;69;26499;-90
2023/08/12 20:32:43;;;;;;;3.67;3.37;;;17.90;99.90;;;;;;2041790;69;25260;-90
2023/08/12 20:35:34;;;;;;;5.53;3.13;;;17.80;99.90;;;;;;2044677;69;25740;-89
2023/08/12 20:38:42;;;;;;;3.90;3.50;;;17.70;99.90;;;;;;2045397;69;25250;-90
2023/08/12 20:41:31;;;;;;;5.43;3.80;;;17.70;99.90;;;;;;2051023;69;25738;-89
2023/08/12 20:44:20;;;;;;;9.63;3.87;;;17.70;99.90;;;;;;2005674;69;25257;-89
2023/08/12 20:47:10;;;;;;;4.63;3.90;;;17.60;99.90;;;;;;2040301;70;25693;-89
2023/08/12 20:49:59;;;;;;;4.47;3.67;;;17.60;99.90;;;;;;2023402;69;25246;-90
2023/08/12 20:55:29;;;;;;;6.47;4.30;;;17.70;99.90;;;;;;1919851;72;27204;-88
2023/08/12 21:01:17;;;;;;;5.50;4.60;;;17.70;99.90;;;;;;1949460;72;26900;-90
2023/08/12 21:04:07;;;;;;;5.30;4.80;;;17.70;99.90;;;;;;1956493;72;25290;-90
2023/08/12 21:06:58;;;;;;;5.47;4.33;;;17.70;99.90;;;;;;1931684;73;25189;-90
2023/08/12 21:09:45;;;;;;;8.30;4.80;;;17.70;99.90;;;;;;1945052;73;25264;-91
2023/08/12 21:12:34;;;;;;;6.43;4.63;;;17.60;99.90;;;;;;1944855;73;25297;-91
2023/08/12 21:15:25;;;;;;;5.47;4.97;;;17.80;99.90;;;;;;1942168;73;25221;-91
2023/08/12 21:18:14;;;;;;;5.43;4.83;;;17.70;99.90;;;;;;1942340;73;25224;-91
2023/08/12 21:21:04;;;;;;;6.47;4.67;;;17.60;99.90;;;;;;1933886;73;25231;-91
2023/08/12 21:23:53;;;;;;;4.97;4.50;;;17.60;99.90;;;;;;1939468;72;25527;-89
2023/08/12 21:26:42;;;;;;;7.63;4.80;;;17.70;99.90;;;;;;1910235;73;25274;-90
2023/08/12 21:29:31;;;;;;;6.27;4.50;;;17.70;99.90;;;;;;1938421;73;25220;-89
2023/08/12 21:32:20;;;;;;;7.13;4.73;;;17.60;99.90;;;;;;1877147;75;25952;-90
2023/08/12 21:37:55;;;;;;;5.23;4.47;;;17.70;99.90;;;;;;1942497;72;26992;-89
2023/08/12 21:40:44;;;;;;;6.63;4.77;;;17.70;99.90;;;;;;1905981;73;25328;-89
2023/08/12 21:43:33;;;;;;;5.93;5.00;;;17.60;99.90;;;;;;1894445;73;25773;-89
2023/08/12 21:46:22;;;;;;;7.03;5.27;;;17.50;99.90;;;;;;1926052;73;25778;-89
2023/08/12 21:49:11;;;;;;;6.47;5.10;;;17.50;99.90;;;;;;1931010;73;25251;-89
2023/08/12 21:52:00;;;;;;;5.30;4.80;;;17.50;99.90;;;;;;1926972;73;25278;-89
2023/08/12 21:54:49;;;;;;;6.47;4.93;;;17.50;99.90;;;;;;1926485;73;25236;-89
2023/08/12 21:57:38;;;;;;;6.37;4.90;;;17.50;99.90;;;;;;1936627;72;25217;-90
2023/08/12 22:03:19;;;;;;;5.87;5.27;;;17.50;99.90;;;;;;1938435;72;26912;-88
2023/08/12 22:06:08;;;;;;;7.90;5.00;;;17.50;99.90;;;;;;1923110;73;25711;-89
2023/08/12 22:08:57;;;;;;;9.17;4.70;;;17.50;99.90;;;;;;1926152;73;25231;-88
2023/08/12 22:11:46;;;;;;;7.47;4.93;;;17.50;99.90;;;;;;1930549;73;25646;-89
2023/08/12 22:14:35;;;;;;;5.33;4.43;;;17.50;99.90;;;;;;1912453;73;25842;-89
2023/08/12 22:17:24;;;;;;;6.10;4.50;;;17.50;99.90;;;;;;1940020;73;25727;-88
2023/08/12 22:20:14;;;;;;;6.13;4.70;;;17.60;99.90;;;;;;1936959;73;25647;-89
2023/08/12 22:40:59;;;;;;;7.70;5.60;;;17.50;99.90;;;;;;1930519;73;25153;-90
2023/08/12 23:07:16;;;;;;;9.20;6.40;;;17.20;99.90;;;;;;1898231;74;25755;-89
2023/08/12 23:11:06;;;;;;;9.23;6.33;;;17.30;99.90;;;;;;1884013;75;25328;-89
2023/08/12 23:52:58;;;;;;;9.73;6.43;;;17.20;99.90;;;;;;1841888;76;25274;-89
